Time;durP1;ratioP1;P1;durP2;ratioP2;P2;SDS_P1;SDS_P2;PMS_P1;PMS_P2;Temp;Humidity;BMP_temperature;BMP_pressure;BME280_temperature;BME280_humidity;BME280_pressure;Samples;Min_cycle;Max_cycle;Signal;HPM_P1;HPM_P2
2022/01/29 00:02:27;;;;;;;34.90;31.25;;;;;;;4.85;100.00;103075.72;5179281;28;20041;-62
2022/01/29 00:04:57;;;;;;;34.05;30.75;;;;;;;4.80;100.00;103063.84;5178747;28;20022;-62
2022/01/29 00:07:27;;;;;;;37.20;32.00;;;;;;;4.87;100.00;103078.25;5179063;28;20037;-62
2022/01/29 00:10:03;;;;;;;40.00;33.25;;;;;;;4.87;100.00;103072.91;5178754;28;20026;-60
2022/01/29 00:12:34;;;;;;;36.63;31.50;;;;;;;4.81;100.00;103054.81;5178582;28;20021;-61
2022/01/29 00:15:05;;;;;;;37.13;33.22;;;;;;;4.74;100.00;103038.56;5179505;28;20026;-63
2022/01/29 00:17:45;;;;;;;36.15;31.27;;;;;;;4.63;100.00;103018.28;5179327;28;20061;-64
2022/01/29 00:20:15;;;;;;;38.70;34.47;;;;;;;4.84;100.00;103041.94;5177828;28;20071;-63
2022/01/29 00:22:46;;;;;;;34.22;30.75;;;;;;;4.86;100.00;103039.94;5177800;28;20026;-63
2022/01/29 00:25:16;;;;;;;32.72;29.45;;;;;;;4.91;100.00;103037.56;5178954;28;20108;-62
2022/01/29 00:27:47;;;;;;;48.90;32.67;;;;;;;4.90;100.00;103041.28;5178637;28;20021;-61
2022/01/29 00:30:18;;;;;;;36.28;32.58;;;;;;;4.94;100.00;103028.38;5178909;28;20025;-61
2022/01/29 00:32:49;;;;;;;33.78;30.33;;;;;;;4.88;100.00;103026.38;5178892;28;20036;-61
2022/01/29 00:35:19;;;;;;;36.80;32.92;;;;;;;4.30;100.00;102930.97;5178670;28;20033;-62
2022/01/29 00:37:50;;;;;;;42.38;34.03;;;;;;;4.94;100.00;103029.22;5178249;28;20025;-61
2022/01/29 00:40:21;;;;;;;37.22;33.10;;;;;;;4.93;100.00;103032.88;5178500;28;20033;-61
2022/01/29 00:42:52;;;;;;;46.75;35.55;;;;;;;4.53;100.00;102968.63;5178761;28;20018;-62
2022/01/29 00:45:23;;;;;;;37.50;34.15;;;;;;;4.67;100.00;102987.53;5178770;28;20537;-62
2022/01/29 00:47:53;;;;;;;36.97;33.50;;;;;;;4.93;100.00;103029.38;5179734;28;20113;-62
2022/01/29 00:50:24;;;;;;;44.45;35.88;;;;;;;4.93;100.00;103027.53;5184766;22;20038;-61
2022/01/29 00:52:54;;;;;;;36.67;31.33;;;;;;;4.90;100.00;103019.03;5167442;28;20034;-59
2022/01/29 00:55:25;;;;;;;37.20;32.30;;;;;;;4.90;100.00;103019.88;5184787;28;20033;-61
2022/01/29 00:57:55;;;;;;;38.03;33.75;;;;;;;4.90;100.00;103014.50;5167571;28;20022;-59
2022/01/29 01:00:26;;;;;;;33.70;30.48;;;;;;;4.88;100.00;103015.69;5167690;28;20044;-57
2022/01/29 01:02:56;;;;;;;40.97;36.03;;;;;;;4.86;100.00;103015.84;5167468;28;20022;-59
2022/01/29 01:05:26;;;;;;;36.88;33.17;;;;;;;4.83;100.00;103004.63;5185014;28;20057;-59
2022/01/29 01:07:58;;;;;;;36.92;33.08;;;;;;;4.81;100.00;102994.09;5185080;28;20037;-57
2022/01/29 01:10:28;;;;;;;37.13;33.65;;;;;;;4.77;100.00;102989.22;5167242;28;20096;-59
2022/01/29 01:13:08;;;;;;;37.63;34.10;;;;;;;4.77;100.00;102983.88;5167126;28;20030;-61
2022/01/29 01:15:39;;;;;;;38.28;34.58;;;;;;;4.75;100.00;102987.53;5167307;28;20030;-58
2022/01/29 01:18:09;;;;;;;38.67;34.78;;;;;;;4.76;100.00;102985.69;5167293;28;20504;-60
2022/01/29 01:24:06;;;;;;;39.28;35.67;;;;;;;4.73;100.00;102967.28;5184434;28;20109;-60
2022/01/29 01:26:37;;;;;;;41.40;37.20;;;;;;;4.67;100.00;102960.75;5167011;28;20112;-61
2022/01/29 01:29:07;;;;;;;42.00;37.70;;;;;;;4.68;100.00;102957.09;5166936;28;20026;-60
2022/01/29 01:31:39;;;;;;;39.97;35.67;;;;;;;4.71;100.00;102962.09;5166860;28;20061;-59
2022/01/29 01:34:10;;;;;;;37.58;33.47;;;;;;;4.69;100.00;102964.13;5166211;28;20022;-61
2022/01/29 01:36:49;;;;;;;41.30;36.90;;;;;;;4.69;100.00;102958.75;5167030;28;20038;-61
2022/01/29 01:39:24;;;;;;;43.38;38.10;;;;;;;4.68;100.00;102956.25;5166793;28;20033;-60
2022/01/29 01:42:02;;;;;;;39.05;34.50;;;;;;;4.67;100.00;102968.78;5166650;28;20590;-61
2022/01/29 01:44:39;;;;;;;43.15;37.78;;;;;;;4.59;100.00;102942.03;5166683;28;20466;-61
2022/01/29 01:47:10;;;;;;;44.13;34.92;;;;;;;4.64;100.00;102954.91;5166814;28;20474;-59
2022/01/29 01:49:41;;;;;;;41.70;37.38;;;;;;;4.64;100.00;102945.03;5166725;28;20075;-59
2022/01/29 01:52:13;;;;;;;46.00;38.13;;;;;;;4.65;100.00;102951.22;5166502;28;20473;-58
2022/01/29 01:54:44;;;;;;;41.60;35.22;;;;;;;4.63;100.00;102951.38;5166348;28;20493;-58
2022/01/29 01:57:16;;;;;;;46.45;36.75;;;;;;;4.63;100.00;102946.03;5166634;28;20030;-61
2022/01/29 01:59:47;;;;;;;40.65;36.35;;;;;;;4.63;100.00;102934.50;5166724;28;20506;-61
2022/01/29 02:02:17;;;;;;;39.63;35.60;;;;;;;4.62;100.00;102920.28;5166574;28;20030;-60
2022/01/29 02:04:48;;;;;;;42.75;38.15;;;;;;;4.64;100.00;102928.97;5166209;28;20037;-59
2022/01/29 02:10:47;;;;;;;37.75;33.90;;;;;;;4.64;100.00;102920.94;5183822;28;20030;-60
2022/01/29 02:20:21;;;;;;;43.30;36.75;;;;;;;4.66;100.00;102880.63;5478255;23;20057;-61
2022/01/29 02:22:52;;;;;;;43.30;36.53;;;;;;;4.67;100.00;102863.59;5186745;28;20022;-61
2022/01/29 02:25:29;;;;;;;44.22;37.53;;;;;;;4.69;100.00;102867.78;5186867;28;20095;-61
2022/01/29 02:28:05;;;;;;;39.05;34.35;;;;;;;4.69;100.00;102866.94;5187385;28;20025;-61
2022/01/29 02:30:39;;;;;;;40.53;36.25;;;;;;;4.68;100.00;102860.75;5186981;28;20493;-61
2022/01/29 02:33:13;;;;;;;41.47;35.92;;;;;;;4.73;100.00;102863.75;5187149;28;20021;-61
2022/01/29 02:35:49;;;;;;;40.08;35.08;;;;;;;4.75;100.00;102863.59;5186824;28;20037;-61
2022/01/29 02:38:23;;;;;;;44.75;36.67;;;;;;;4.77;100.00;102864.25;5186833;28;20026;-60
2022/01/29 02:40:58;;;;;;;38.65;31.42;;;;;;;4.79;100.00;102859.56;5186878;28;20603;-61
2022/01/29 02:43:44;;;;;;;40.25;36.10;;;;;;;4.80;100.00;102857.72;5186619;28;20021;-61
2022/01/29 02:48:50;;;;;;;40.17;33.35;;;;;;;4.83;100.00;102849.38;5208642;28;20026;-60
2022/01/29 02:51:20;;;;;;;36.95;33.03;;;;;;;4.84;100.00;102851.03;5190421;28;20018;-61
2022/01/29 02:53:51;;;;;;;47.08;34.25;;;;;;;4.84;100.00;102840.34;5190190;28;20032;-61
2022/01/29 02:59:51;;;;;;;42.15;32.72;;;;;;;4.89;100.00;102841.50;5207924;28;20183;-61
2022/01/29 03:02:22;;;;;;;35.13;31.15;;;;;;;4.90;100.00;102842.34;5189817;28;20048;-58
2022/01/29 03:04:52;;;;;;;42.75;33.20;;;;;;;4.90;100.00;102836.97;5189491;28;20037;-61
2022/01/29 03:07:23;;;;;;;33.40;29.05;;;;;;;4.92;100.00;102845.66;5189871;28;20032;-60
2022/01/29 03:09:53;;;;;;;39.08;29.65;;;;;;;4.94;100.00;102840.97;5189853;28;20036;-61
2022/01/29 03:12:24;;;;;;;32.17;28.42;;;;;;;4.95;100.00;102840.78;5189639;28;20025;-60
2022/01/29 03:14:55;;;;;;;31.38;27.80;;;;;;;4.97;100.00;102829.91;5189507;28;20028;-60
2022/01/29 03:17:25;;;;;;;33.78;30.13;;;;;;;4.94;100.00;102825.75;5189542;28;20033;-60
2022/01/29 03:19:56;;;;;;;32.88;28.48;;;;;;;5.00;100.00;102829.59;5189541;28;20469;-61
2022/01/29 03:22:26;;;;;;;28.75;25.88;;;;;;;5.02;100.00;102830.25;5189476;28;20531;-61
2022/01/29 03:24:57;;;;;;;32.65;28.95;;;;;;;5.05;100.00;102829.91;5189288;28;20081;-61
2022/01/29 03:27:27;;;;;;;33.28;29.63;;;;;;;5.06;100.00;102821.69;5190309;28;20025;-60
2022/01/29 03:29:57;;;;;;;29.83;27.08;;;;;;;5.06;100.00;102826.22;5189839;28;20025;-60
2022/01/29 03:32:28;;;;;;;32.63;29.20;;;;;;;5.07;100.00;102811.84;5189698;28;20037;-57
2022/01/29 03:34:58;;;;;;;31.23;27.95;;;;;;;5.08;100.00;102818.84;5206858;28;20465;-57
2022/01/29 03:37:29;;;;;;;27.10;24.65;;;;;;;5.10;100.00;102806.13;5189638;28;20040;-58
2022/01/29 03:40:24;;;;;;;29.40;26.08;;;;;;;5.11;100.00;102810.47;5189733;28;20029;-57
2022/01/29 03:43:05;;;;;;;34.00;24.65;;;;;;;5.15;100.00;102808.31;5189186;28;20075;-57
2022/01/29 03:45:36;;;;;;;27.25;24.65;;;;;;;5.15;100.00;102811.81;5189156;28;20029;-58
2022/01/29 03:48:06;;;;;;;27.60;24.73;;;;;;;5.18;100.00;102805.28;5189324;28;20029;-56
2022/01/29 03:50:37;;;;;;;27.13;24.15;;;;;;;5.19;100.00;102807.78;5189209;28;20028;-59
2022/01/29 03:53:07;;;;;;;27.42;24.83;;;;;;;5.20;100.00;102796.03;5188977;28;20052;-58
2022/01/29 03:55:38;;;;;;;29.45;26.65;;;;;;;5.16;100.00;102792.06;5188581;28;20025;-59
2022/01/29 03:58:08;;;;;;;27.13;24.45;;;;;;;5.23;100.00;102802.91;5188686;28;20433;-57
2022/01/29 04:00:42;;;;;;;27.88;25.10;;;;;;;5.24;100.00;102796.53;5206634;28;20017;-59
2022/01/29 04:03:12;;;;;;;26.35;23.98;;;;;;;5.23;100.00;102797.53;5188893;28;20018;-62
2022/01/29 04:05:43;;;;;;;27.50;24.80;;;;;;;5.26;100.00;102792.66;5188690;28;20088;-57
2022/01/29 04:08:14;;;;;;;25.60;23.13;;;;;;;5.28;100.00;102790.66;5188794;28;20103;-60
2022/01/29 04:10:47;;;;;;;25.67;23.25;;;;;;;5.28;100.00;102782.63;5188484;28;20018;-60
2022/01/29 04:13:22;;;;;;;28.45;25.63;;;;;;;5.29;100.00;102775.41;5188288;28;20084;-58
2022/01/29 04:15:52;;;;;;;29.67;26.52;;;;;;;5.31;100.00;102774.25;5188749;28;20052;-61
2022/01/29 04:18:23;;;;;;;31.50;28.40;;;;;;;5.34;100.00;102776.56;5188441;28;20060;-58
2022/01/29 04:20:53;;;;;;;31.83;27.10;;;;;;;5.39;100.00;102784.94;5188415;28;20074;-57
2022/01/29 04:23:24;;;;;;;30.30;23.77;;;;;;;5.42;100.00;102787.25;5205784;28;20059;-58
2022/01/29 04:25:55;;;;;;;27.75;24.75;;;;;;;5.43;100.00;102769.34;5188416;28;20025;-61
2022/01/29 04:28:29;;;;;;;31.27;27.13;;;;;;;5.44;100.00;102771.00;5188390;28;20053;-58
2022/01/29 04:31:06;;;;;;;27.05;23.70;;;;;;;5.46;100.00;102769.00;5187956;28;20025;-60
2022/01/29 04:33:37;;;;;;;24.42;22.25;;;;;;;5.46;100.00;102769.00;5187917;28;20519;-58
2022/01/29 04:36:08;;;;;;;26.23;23.50;;;;;;;5.47;100.00;102775.19;5171895;28;20053;-62
2022/01/29 04:38:51;;;;;;;29.15;26.30;;;;;;;5.50;100.00;102780.16;5188454;28;20485;-57
2022/01/29 04:41:22;;;;;;;27.92;25.42;;;;;;;5.51;100.00;102769.28;5187645;28;20017;-58
2022/01/29 04:43:52;;;;;;;27.13;24.35;;;;;;;5.51;100.00;102763.06;5187731;28;20021;-58
2022/01/29 04:46:23;;;;;;;26.92;24.40;;;;;;;5.56;100.00;102761.53;5188002;28;20516;-57
2022/01/29 04:48:53;;;;;;;26.33;23.70;;;;;;;5.59;100.00;102763.03;5187954;28;20044;-55
2022/01/29 04:51:24;;;;;;;28.98;23.50;;;;;;;5.61;100.00;102758.34;5187534;28;20036;-59
2022/01/29 04:53:54;;;;;;;27.63;25.10;;;;;;;5.61;100.00;102756.50;5187347;28;20359;-56
2022/01/29 04:56:25;;;;;;;26.77;23.85;;;;;;;5.61;100.00;102756.50;5187769;28;20099;-58
2022/01/29 04:58:55;;;;;;;28.17;25.33;;;;;;;5.60;100.00;102746.78;5187673;28;20448;-55
2022/01/29 05:01:26;;;;;;;25.08;22.75;;;;;;;5.64;100.00;102748.09;5187609;28;20021;-56
2022/01/29 05:03:56;;;;;;;28.13;25.20;;;;;;;5.64;100.00;102744.59;5187111;28;20049;-56
2022/01/29 05:06:27;;;;;;;26.52;23.98;;;;;;;5.67;100.00;102749.59;5187584;28;20397;-58
2022/01/29 05:08:57;;;;;;;29.67;24.55;;;;;;;5.68;100.00;102745.91;5186863;28;20025;-57
2022/01/29 05:11:28;;;;;;;30.00;26.85;;;;;;;5.67;100.00;102725.47;5187329;28;20079;-58
2022/01/29 05:14:00;;;;;;;25.88;23.27;;;;;;;5.66;100.00;102726.50;5186750;28;20022;-56
2022/01/29 05:27:30;;;;;;;26.05;23.40;;;;;;;5.80;100.00;102719.50;5205202;28;20508;-60
2022/01/29 05:30:01;;;;;;;24.70;22.25;;;;;;;5.83;100.00;102733.38;5187232;28;20021;-58
2022/01/29 05:32:31;;;;;;;27.20;24.08;;;;;;;5.84;100.00;102728.88;5197057;22;20394;-80
2022/01/29 05:35:01;;;;;;;26.40;23.67;;;;;;;5.70;100.00;102692.97;5185292;28;20720;-79
2022/01/29 05:37:32;;;;;;;27.13;22.55;;;;;;;5.81;100.00;102713.13;5168247;28;20033;-80
2022/01/29 05:40:03;;;;;;;24.73;20.02;;;;;;;5.81;100.00;102713.97;5185590;28;20026;-79
2022/01/29 05:42:33;;;;;;;22.30;20.50;;;;;;;5.71;100.00;102691.94;5185741;28;20037;-80
2022/01/29 05:45:04;;;;;;;25.50;23.38;;;;;;;5.83;100.00;102711.94;5169907;28;20486;-81
2022/01/29 05:47:35;;;;;;;23.98;21.83;;;;;;;5.90;100.00;102717.47;5190800;28;20033;-78
2022/01/29 05:50:06;;;;;;;25.52;22.98;;;;;;;5.72;100.00;102697.13;5187791;28;20026;-83
2022/01/29 05:52:36;;;;;;;22.90;20.83;;;;;;;5.76;100.00;102700.28;5185776;28;20529;-79
2022/01/29 05:55:07;;;;;;;23.30;21.30;;;;;;;5.70;100.00;102687.59;5186868;28;20022;-80
2022/01/29 05:57:37;;;;;;;25.02;21.80;;;;;;;5.70;100.00;102679.56;5188054;28;20380;-79
2022/01/29 06:00:08;;;;;;;22.63;20.33;;;;;;;5.90;100.00;102699.53;5170481;28;20022;-82
2022/01/29 06:02:39;;;;;;;27.05;24.73;;;;;;;5.76;100.00;102676.16;5188726;28;20049;-79
2022/01/29 06:05:09;;;;;;;23.17;21.27;;;;;;;5.97;100.00;102711.22;5193561;28;20061;-80
2022/01/29 06:07:39;;;;;;;21.27;19.27;;;;;;;5.77;100.00;102667.13;5194273;28;20021;-80
2022/01/29 06:10:10;;;;;;;24.67;22.27;;;;;;;6.00;100.00;102702.81;5193169;28;20404;-81
2022/01/29 06:12:40;;;;;;;26.40;24.20;;;;;;;6.04;100.00;102706.78;5192254;28;20026;-81
2022/01/29 06:15:11;;;;;;;25.25;22.60;;;;;;;5.89;100.00;102680.94;5190939;28;20041;-80
2022/01/29 06:17:41;;;;;;;23.63;21.20;;;;;;;6.01;100.00;102699.13;5175387;28;20499;-81
2022/01/29 06:20:12;;;;;;;26.80;24.23;;;;;;;6.05;100.00;102699.59;5158986;28;20180;-81
2022/01/29 06:22:42;;;;;;;23.80;21.35;;;;;;;6.09;100.00;102709.75;5175660;28;20038;-81
2022/01/29 06:25:13;;;;;;;23.30;21.15;;;;;;;5.99;100.00;102686.91;5175586;28;20026;-79
2022/01/29 06:27:43;;;;;;;21.55;19.73;;;;;;;6.11;100.00;102704.19;5184620;28;20026;-80
2022/01/29 06:30:15;;;;;;;23.77;21.67;;;;;;;5.93;100.00;102674.19;5192320;28;20380;-80
2022/01/29 06:32:45;;;;;;;23.27;21.30;;;;;;;6.13;100.00;102695.97;5191763;28;20033;-79
2022/01/29 06:35:15;;;;;;;21.23;19.00;;;;;;;6.08;100.00;102685.78;5191600;28;20029;-78
2022/01/29 06:37:47;;;;;;;22.77;20.63;;;;;;;6.19;100.00;102709.50;5193753;28;20018;-81
2022/01/29 06:40:17;;;;;;;22.90;20.80;;;;;;;6.17;100.00;102686.56;5190953;28;20057;-80
2022/01/29 06:42:47;;;;;;;22.83;20.95;;;;;;;6.18;100.00;102681.00;5192135;28;20022;-80
2022/01/29 06:45:18;;;;;;;21.67;19.80;;;;;;;6.23;100.00;102689.34;5192554;28;20049;-80
2022/01/29 06:47:48;;;;;;;22.75;20.95;;;;;;;6.23;100.00;102702.75;5191945;28;20048;-81
2022/01/29 06:50:19;;;;;;;21.40;19.27;;;;;;;6.01;100.00;102647.31;5172229;28;20045;-81
2022/01/29 06:52:50;;;;;;;22.13;19.98;;;;;;;6.26;100.00;102685.47;5191808;28;20172;-81
2022/01/29 06:55:20;;;;;;;24.00;21.75;;;;;;;6.07;100.00;102658.13;5191667;28;20080;-80
2022/01/29 06:57:51;;;;;;;20.88;18.92;;;;;;;6.27;100.00;102677.25;5192848;28;20061;-81
2022/01/29 07:00:21;;;;;;;24.60;22.42;;;;;;;6.34;100.00;102677.34;5192553;28;20029;-82
2022/01/29 07:02:51;;;;;;;23.23;21.02;;;;;;;6.23;100.00;102670.56;5192518;28;20053;-82
2022/01/29 07:05:22;;;;;;;22.73;20.27;;;;;;;6.33;100.00;102664.94;5191923;28;20030;-80
2022/01/29 07:07:52;;;;;;;21.33;19.40;;;;;;;6.24;100.00;102650.78;5193023;28;20029;-80
2022/01/29 07:10:23;;;;;;;19.83;18.33;;;;;;;6.04;100.00;102618.28;5193068;28;20037;-78
2022/01/29 07:12:53;;;;;;;21.55;19.27;;;;;;;6.39;100.00;102658.81;5191971;28;20018;-81
2022/01/29 07:15:24;;;;;;;21.05;19.23;;;;;;;6.39;100.00;102664.19;5192927;28;20537;-82
2022/01/29 07:17:54;;;;;;;22.30;18.85;;;;;;;6.44;100.00;102657.25;5192541;28;20471;-81
2022/01/29 07:20:25;;;;;;;20.73;19.05;;;;;;;6.43;100.00;102652.06;5192712;28;20044;-81
2022/01/29 07:22:55;;;;;;;21.42;19.58;;;;;;;6.48;100.00;102665.78;5192483;28;20013;-82
2022/01/29 07:25:26;;;;;;;22.92;20.67;;;;;;;6.45;100.00;102650.03;5187531;28;20025;-80
2022/01/29 07:27:56;;;;;;;18.98;17.45;;;;;;;6.54;100.00;102661.53;5191594;28;20487;-79
2022/01/29 07:30:26;;;;;;;20.27;18.67;;;;;;;6.57;100.00;102656.63;5192641;28;20030;-81
2022/01/29 07:32:57;;;;;;;20.65;18.75;;;;;;;6.56;100.00;102659.50;5192128;28;20042;-82
2022/01/29 07:35:27;;;;;;;21.00;19.33;;;;;;;6.48;100.00;102636.25;5192171;28;20487;-81
2022/01/29 07:37:57;;;;;;;17.40;16.10;;;;;;;6.60;100.00;102642.84;5192802;28;20061;-81
2022/01/29 07:40:28;;;;;;;19.25;17.55;;;;;;;6.69;100.00;102665.84;5192487;28;20022;-80
2022/01/29 07:42:58;;;;;;;20.50;16.15;;;;;;;6.73;100.00;102655.56;5192557;28;20053;-81
2022/01/29 07:45:29;;;;;;;18.50;16.92;;;;;;;6.70;100.00;102651.41;5192738;28;20049;-82
2022/01/29 07:48:00;;;;;;;19.70;17.75;;;;;;;6.82;100.00;102657.16;5193999;28;20021;-81
2022/01/29 07:50:30;;;;;;;19.38;17.48;;;;;;;6.81;100.00;102651.97;5193552;28;20075;-82
2022/01/29 07:53:01;;;;;;;18.20;16.35;;;;;;;6.83;100.00;102648.06;5194763;28;20030;-82
2022/01/29 07:55:31;;;;;;;19.80;17.60;;;;;;;6.74;100.00;102623.19;5192671;28;20033;-80
2022/01/29 07:58:03;;;;;;;17.13;15.57;;;;;;;6.99;100.00;102649.69;5190035;28;20060;-80
2022/01/29 08:00:33;;;;;;;20.73;18.67;;;;;;;7.03;100.00;102646.47;5172039;28;20026;-80
2022/01/29 08:03:04;;;;;;;18.83;17.00;;;;;;;7.03;100.00;102645.63;5189891;28;20026;-80
2022/01/29 08:05:35;;;;;;;21.85;19.73;;;;;;;7.06;100.00;102629.13;5190637;28;20407;-80
2022/01/29 08:08:06;;;;;;;18.23;16.52;;;;;;;6.96;100.00;102607.09;5192889;28;20013;-81
2022/01/29 08:10:36;;;;;;;17.77;16.25;;;;;;;7.01;100.00;102610.06;5192786;28;20028;-81
2022/01/29 08:13:07;;;;;;;19.08;15.68;;;;;;;7.03;100.00;102597.28;5192416;28;20076;-81
2022/01/29 08:15:37;;;;;;;18.83;15.55;;;;;;;7.10;100.00;102603.56;5192476;28;20034;-80
2022/01/29 08:18:07;;;;;;;17.40;15.90;;;;;;;7.18;100.00;102583.81;5194916;28;20021;-81
2022/01/29 08:20:38;;;;;;;17.30;15.77;;;;;;;7.40;100.00;102623.09;5194260;28;20052;-85
2022/01/29 08:23:09;;;;;;;16.55;14.63;;;;;;;7.27;100.00;102598.75;5176044;28;20387;-83
2022/01/29 08:25:40;;;;;;;15.27;14.00;;;;;;;7.23;100.00;102587.56;5193829;28;20061;-79
2022/01/29 08:28:11;;;;;;;16.48;15.27;;;;;;;7.48;100.00;102622.97;5193980;28;20030;-81
2022/01/29 08:30:42;;;;;;;18.88;17.05;;;;;;;7.54;100.00;102629.41;5176308;28;20022;-81
2022/01/29 08:33:18;;;;;;;15.18;13.88;;;;;;;7.58;100.00;102622.63;5193037;28;20030;-79
2022/01/29 08:35:48;;;;;;;17.17;14.13;;;;;;;7.47;100.00;102598.97;5176074;28;20093;-79
2022/01/29 08:38:21;;;;;;;18.38;16.58;;;;;;;7.42;100.00;102599.53;5193704;28;20090;-81
2022/01/29 08:40:52;;;;;;;15.98;14.68;;;;;;;7.38;100.00;102582.97;5193661;28;20026;-81
2022/01/29 08:43:23;;;;;;;14.60;13.18;;;;;;;7.62;100.00;102597.03;5192441;28;20101;-81
2022/01/29 08:45:54;;;;;;;16.58;15.02;;;;;;;7.64;100.00;102611.09;5193540;28;20041;-81
2022/01/29 08:48:25;;;;;;;15.70;14.20;;;;;;;7.67;100.00;102602.66;5175703;28;20080;-83
2022/01/29 08:50:56;;;;;;;18.58;14.45;;;;;;;7.42;100.00;102553.84;5193170;28;20029;-83
2022/01/29 08:53:26;;;;;;;14.20;13.02;;;;;;;7.75;100.00;102606.03;5191548;28;20018;-82
2022/01/29 08:55:56;;;;;;;17.38;15.80;;;;;;;7.64;100.00;102579.66;5193443;28;20025;-83
2022/01/29 08:58:27;;;;;;;13.05;11.73;;;;;;;7.62;100.00;102568.28;5194075;28;20022;-83
2022/01/29 09:00:57;;;;;;;13.82;12.70;;;;;;;7.73;100.00;102583.06;5176051;28;20036;-83
2022/01/29 09:03:29;;;;;;;14.48;13.10;;;;;;;7.49;100.00;102540.47;5175748;28;20104;-81
2022/01/29 09:06:00;;;;;;;14.35;12.50;;;;;;;7.73;100.00;102594.66;5194631;28;20104;-81
2022/01/29 09:08:31;;;;;;;14.27;12.98;;;;;;;7.77;100.00;102600.47;5176359;28;20048;-82
2022/01/29 09:11:02;;;;;;;15.85;14.52;;;;;;;7.79;100.00;102603.81;5193587;28;20018;-82
2022/01/29 09:13:32;;;;;;;17.52;15.77;;;;;;;7.55;100.00;102556.63;5193555;28;20081;-82
2022/01/29 09:16:03;;;;;;;14.30;13.15;;;;;;;7.79;100.00;102582.28;5193084;28;20030;-81
2022/01/29 09:18:33;;;;;;;14.50;13.30;;;;;;;7.79;100.00;102584.97;5175102;28;20040;-82
2022/01/29 09:21:05;;;;;;;14.30;12.93;;;;;;;7.66;100.00;102566.03;5174932;28;20076;-82
2022/01/29 09:23:35;;;;;;;14.55;13.45;;;;;;;7.90;100.00;102607.78;5192530;28;20026;-81
2022/01/29 09:26:06;;;;;;;14.50;13.20;;;;;;;7.84;100.00;102589.75;5192660;28;20025;-82
2022/01/29 09:28:36;;;;;;;16.92;13.23;;;;;;;7.95;100.00;102602.66;5193654;28;20044;-82
2022/01/29 09:31:07;;;;;;;16.30;14.68;;;;;;;7.73;100.00;102558.84;5192824;28;20053;-82
2022/01/29 09:33:38;;;;;;;12.27;11.35;;;;;;;7.79;100.00;102571.53;5192354;28;20022;-82
2022/01/29 09:36:09;;;;;;;14.70;13.13;;;;;;;7.97;100.00;102609.50;5192819;28;20034;-82
2022/01/29 09:38:39;;;;;;;14.68;13.50;;;;;;;7.84;100.00;102577.13;5192964;28;20121;-82
2022/01/29 09:41:10;;;;;;;12.43;11.60;;;;;;;7.97;100.00;102601.44;5174002;28;20060;-82
2022/01/29 09:43:43;;;;;;;15.45;14.32;;;;;;;7.96;100.00;102597.09;5191960;28;20554;-80
2022/01/29 09:46:16;;;;;;;14.82;13.60;;;;;;;7.90;100.00;102579.03;5192965;28;20029;-82
2022/01/29 09:48:46;;;;;;;15.13;13.70;;;;;;;7.65;100.00;102527.56;5193813;28;20036;-83
2022/01/29 09:51:17;;;;;;;15.77;14.20;;;;;;;8.01;100.00;102583.88;5192536;28;20029;-81
2022/01/29 09:53:48;;;;;;;14.02;12.95;;;;;;;8.04;100.00;102585.34;5191796;28;20026;-82
2022/01/29 09:56:19;;;;;;;17.02;14.32;;;;;;;8.08;100.00;102594.69;5191881;28;20030;-85
2022/01/29 09:58:49;;;;;;;14.18;12.90;;;;;;;7.73;100.00;102538.19;5191841;28;20055;-82
2022/01/29 10:01:20;;;;;;;14.23;13.05;;;;;;;8.17;100.00;102608.81;5174769;28;20116;-82
2022/01/29 10:04:02;;;;;;;13.27;12.00;;;;;;;8.08;100.00;102587.44;5191558;28;20033;-81
2022/01/29 10:06:33;;;;;;;12.80;11.63;;;;;;;8.24;100.00;102609.69;5192329;28;20476;-82
2022/01/29 10:09:06;;;;;;;13.05;10.93;;;;;;;8.23;100.00;102594.56;5173739;28;20026;-80
2022/01/29 10:11:38;;;;;;;11.88;10.98;;;;;;;8.23;100.00;102586.50;5171453;28;20032;-83
2022/01/29 10:14:08;;;;;;;11.07;10.27;;;;;;;8.27;100.00;102585.91;5188629;28;20472;-82
2022/01/29 10:16:42;;;;;;;10.45;9.63;;;;;;;8.16;100.00;102553.31;5188968;28;20036;-83
2022/01/29 10:19:13;;;;;;;13.45;9.90;;;;;;;8.49;100.00;102583.13;5189021;28;20029;-82
2022/01/29 10:21:47;;;;;;;8.77;8.07;;;;;;;8.48;100.00;102587.69;5172259;28;20041;-83
2022/01/29 10:24:19;;;;;;;11.48;10.45;;;;;;;8.56;100.00;102600.16;5188220;28;20048;-82
2022/01/29 10:26:51;;;;;;;8.75;7.75;;;;;;;8.59;100.00;102597.91;5186710;28;20083;-81
2022/01/29 10:29:23;;;;;;;9.95;9.02;;;;;;;8.65;100.00;102570.19;5189534;28;20026;-85
2022/01/29 10:31:56;;;;;;;7.50;7.03;;;;;;;8.79;100.00;102579.94;5186507;28;20032;-81
2022/01/29 10:34:32;;;;;;;9.13;8.52;;;;;;;8.82;100.00;102572.50;5185660;28;20026;-83
2022/01/29 10:37:11;;;;;;;10.63;8.25;;;;;;;8.93;100.00;102563.84;5186365;28;20026;-80
2022/01/29 10:39:44;;;;;;;15.23;8.15;;;;;;;9.02;100.00;102546.44;5186761;28;20037;-81
2022/01/29 10:42:30;;;;;;;7.47;6.88;;;;;;;9.12;100.00;102536.09;5189314;28;20030;-81
2022/01/29 10:45:04;;;;;;;6.28;5.55;;;;;;;9.10;100.00;102528.22;5175858;28;20416;-82
2022/01/29 10:47:53;;;;;;;6.40;6.00;;;;;;;9.35;100.00;102536.53;5196024;28;20520;-81
2022/01/29 10:50:25;;;;;;;6.93;6.35;;;;;;;9.32;100.00;102509.97;5191325;28;20044;-79
2022/01/29 10:52:56;;;;;;;6.75;6.25;;;;;;;9.54;100.00;102512.44;5192367;28;20026;-81
2022/01/29 10:55:26;;;;;;;5.90;5.50;;;;;;;9.60;100.00;102503.53;5190334;28;20404;-81
2022/01/29 10:57:56;;;;;;;6.13;5.63;;;;;;;9.53;100.00;102492.75;5171824;28;20022;-82
2022/01/29 11:00:31;;;;;;;6.25;5.63;;;;;;;9.67;100.00;102521.38;5172199;28;20437;-82
2022/01/29 11:03:01;;;;;;;4.97;4.60;;;;;;;9.58;100.00;102519.09;5190071;28;20025;-82
2022/01/29 11:05:33;;;;;;;5.35;4.85;;;;;;;9.27;100.00;102471.19;5187638;28;20040;-82
2022/01/29 11:08:04;;;;;;;5.95;5.45;;;;;;;9.27;100.00;102487.38;5192173;28;20033;-80
2022/01/29 11:10:35;;;;;;;3.45;3.25;;;;;;;9.57;100.00;102520.97;5192964;28;20077;-83
2022/01/29 11:13:05;;;;;;;4.90;4.60;;;;;;;9.62;100.00;102547.31;5193635;28;20018;-82
2022/01/29 11:15:36;;;;;;;5.15;4.00;;;;;;;9.20;100.00;102468.53;5175260;28;20037;-82
2022/01/29 11:18:06;;;;;;;4.53;4.22;;;;;;;9.58;100.00;102527.19;5175701;28;20041;-82
2022/01/29 11:20:37;;;;;;;4.38;4.07;;;;;;;9.46;100.00;102500.84;5175109;28;20500;-82
2022/01/29 11:23:07;;;;;;;4.53;4.32;;;;;;;9.63;100.00;102511.19;5193597;28;20562;-83
2022/01/29 11:25:38;;;;;;;4.35;4.05;;;;;;;9.36;100.00;102468.09;5176167;28;20018;-79
2022/01/29 11:28:16;;;;;;;3.58;3.40;;;;;;;9.55;100.00;102490.66;5194850;28;20026;-82
2022/01/29 11:31:15;;;;;;;4.50;4.30;;;;;;;9.80;100.00;102517.84;5183133;28;20060;-81
2022/01/29 11:33:57;;;;;;;4.60;4.27;;;;;;;9.83;100.00;102501.19;5205552;23;20072;-79
2022/01/29 11:42:34;;;;;;;6.35;4.28;;;;;;;9.89;100.00;102467.97;5214120;22;20046;-79
2022/01/29 11:45:33;;;;;;;5.13;3.83;;;;;;;9.96;100.00;102466.09;5186102;28;20030;-79
2022/01/29 11:48:03;;;;;;;3.58;3.47;;;;;;;10.01;100.00;102466.28;5186347;28;20415;-79
2022/01/29 11:50:34;;;;;;;6.25;3.85;;;;;;;10.02;100.00;102459.03;5186145;28;20026;-79
2022/01/29 11:53:04;;;;;;;3.85;3.58;;;;;;;10.00;100.00;102456.53;5186137;28;20223;-79
2022/01/29 11:55:50;;;;;;;9.05;4.28;;;;;;;9.95;100.00;102437.47;5186009;28;20037;-78
2022/01/29 11:58:27;;;;;;;4.60;4.32;;;;;;;9.94;100.00;102445.75;5186261;28;20030;-79
2022/01/29 12:01:04;;;;;;;3.65;3.45;;;;;;;9.95;100.00;102434.75;5186105;28;20057;-81
2022/01/29 12:03:35;;;;;;;4.13;3.88;;;;;;;9.93;100.00;102434.13;5185530;28;20032;-78
2022/01/29 12:09:07;;;;;;;3.25;3.05;;;;;;;10.02;100.00;102434.75;5187678;28;20041;-79
2022/01/29 12:11:39;;;;;;;;;;;;;;;10.03;100.00;102434.53;5185967;28;20108;-79
2022/01/29 12:14:12;;;;;;;4.25;3.70;;;;;;;10.03;100.00;102412.94;5186892;28;19914;-79